TAF and METAR

Decoding for American and Canadian METARs and TAFs is not fully implemented.

Could not understand the following METAR

PAFB 191458Z AUTO 26006KT 10SM CLR M01/M03 A2960 RMK AO2 PRESRR SLP029 T10131030 52044

TAF for Wainwright Army Airfield

TAF PAFB 191500Z 1915/2021 27010KT 9999 BKN075 OVC100 QNH2959INS BECMG 1917/1918 27009KT 9999 VCSH BKN035 OVC060 620353 QNH2973INS BECMG 1919/1920 25010G15KT 9999 NSW OVC040 600404 QNH2981INS TEMPO 1920/1923 25012G20KT 510005 BECMG 2005/2006 VRB06KT 9999 SCT080 QNH3010INS TX08/2001Z TNM02/1916Z
Report created 19. mar 16:00

between 19. mar 16:00 - 20. mar 22:00

wind 10 knots from W (270°) visibility > 10km broken clouds (~75% cover) at 7500 feet overcast at 10000 feet
Wainwright Army Airfield in United States of America at 137m

Latest 5 airports